createdAt,value
2019-01-02T00:00:05.483Z,97.68
2019-01-02T00:01:16.291Z,97.97
2019-01-02T00:02:25.770Z,98.44
2019-01-02T00:03:35.730Z,98.35
2019-01-02T00:04:45.671Z,98.01
2019-01-02T00:05:56.707Z,98.01
2019-01-02T00:07:06.753Z,98.44
2019-01-02T00:08:16.795Z,98.35
2019-01-02T00:09:26.878Z,98.44
2019-01-02T00:10:37.640Z,98.01
2019-01-02T00:11:47.358Z,98.44
2019-01-02T00:12:57.617Z,98.63
2019-01-02T00:14:08.844Z,99.15
2019-01-02T00:15:19.031Z,99.24
2019-01-02T00:16:28.994Z,99.05
2019-01-02T00:17:39.295Z,99.33
2019-01-02T00:18:50.586Z,98.68
2019-01-02T00:20:00.572Z,98.96
2019-01-02T00:21:10.549Z,99.05
2019-01-02T00:22:20.865Z,98.77
2019-01-02T00:23:32.179Z,98.91
2019-01-02T00:24:42.158Z,99.15
2019-01-02T00:25:52.435Z,99.05
2019-01-02T00:27:02.761Z,98.86
2019-01-02T00:28:13.173Z,99.15
2019-01-02T00:29:23.149Z,99.15
2019-01-02T00:30:33.497Z,99.24
2019-01-02T00:31:43.943Z,99.43
2019-01-02T00:32:54.881Z,99.81
2019-01-02T00:34:04.867Z,99.33
2019-01-02T00:35:15.139Z,99.15
2019-01-02T00:36:26.439Z,99.43
2019-01-02T00:37:36.425Z,99.24
2019-01-02T00:38:46.645Z,99.15
2019-01-02T00:39:57.263Z,99.33
2019-01-02T00:41:08.345Z,99.33
2019-01-02T00:42:18.326Z,99.05
2019-01-02T00:43:28.375Z,98.77
2019-01-02T00:44:39.566Z,99.24
2019-01-02T00:45:49.540Z,99.24
2019-01-02T00:46:59.039Z,99.05
2019-01-02T00:48:09.097Z,99.05
2019-01-02T00:49:20.015Z,98.86
2019-01-02T00:50:29.734Z,98.68
2019-01-02T00:51:40.061Z,99.05
2019-01-02T00:52:51.317Z,98.96
2019-01-02T00:54:01.585Z,98.77
2019-01-02T00:55:11.565Z,98.86
2019-01-02T00:56:21.836Z,98.39
2019-01-02T00:57:32.702Z,99.15
2019-01-02T00:58:42.434Z,99.05
2019-01-02T00:59:52.559Z,99.24
2019-01-02T01:01:03.664Z,98.86
2019-01-02T01:02:13.633Z,98.58
2019-01-02T01:03:24.004Z,98.86
2019-01-02T01:04:35.076Z,98.86
2019-01-02T01:05:44.790Z,99.05
2019-01-02T01:06:54.562Z,99.33
2019-01-02T01:08:05.398Z,98.77
2019-01-02T01:09:16.110Z,98.39
2019-01-02T01:10:25.842Z,98.86
2019-01-02T01:11:35.861Z,98.86
2019-01-02T01:12:47.160Z,98.86
2019-01-02T01:13:57.264Z,98.96
2019-01-02T01:15:07.260Z,98.96
2019-01-02T01:16:18.312Z,99.24
2019-01-02T01:17:28.768Z,99.33
2019-01-02T01:18:38.485Z,99.15
2019-01-02T01:19:48.668Z,98.86
2019-01-02T01:20:59.941Z,99.05
2019-01-02T01:22:09.690Z,98.86
2019-01-02T01:23:19.797Z,98.68
2019-01-02T01:24:30.022Z,98.2
2019-01-02T01:25:40.617Z,98.2
2019-01-02T01:26:50.074Z,98.58
2019-01-02T01:28:00.032Z,98.58
2019-01-02T01:29:10.326Z,98.68
2019-01-02T01:30:21.801Z,98.68
2019-01-02T01:31:31.759Z,98.3
2019-01-02T01:32:41.740Z,98.11
2019-01-02T01:33:51.789Z,98.2
2019-01-02T01:35:02.370Z,98.2
2019-01-02T01:36:12.712Z,98.39
2019-01-02T01:37:22.433Z,98.3
2019-01-02T01:38:32.712Z,98.39
2019-01-02T01:39:42.687Z,98.39
2019-01-02T01:40:53.886Z,98.3
2019-01-02T01:42:03.857Z,98.58
2019-01-02T01:43:14.238Z,98.58
2019-01-02T01:44:24.618Z,98.49
2019-01-02T01:45:35.829Z,98.58
2019-01-02T01:46:45.551Z,98.3
2019-01-02T01:47:55.285Z,98.39
2019-01-02T01:49:05.580Z,97.92
2019-01-02T01:50:16.711Z,97.82
2019-01-02T01:51:26.173Z,97.35
2019-01-02T01:52:36.134Z,97.25
2019-01-02T01:53:46.240Z,97.73
2019-01-02T01:54:57.448Z,97.35
2019-01-02T01:56:07.426Z,97.54
2019-01-02T01:57:17.156Z,97.06
2019-01-02T01:58:27.390Z,96.88
2019-01-02T01:59:38.783Z,96.69
2019-01-02T02:00:49.170Z,96.97
2019-01-02T02:01:59.135Z,97.16
2019-01-02T02:03:09.199Z,97.63
2019-01-02T02:04:19.546Z,97.63
2019-01-02T02:05:30.342Z,97.44
2019-01-02T02:06:40.310Z,96.88
2019-01-02T02:07:50.640Z,97.16
2019-01-02T02:09:00.931Z,97.06
2019-01-02T02:10:11.847Z,96.88
2019-01-02T02:11:21.834Z,96.78
2019-01-02T02:12:31.544Z,97.35
2019-01-02T02:13:41.853Z,97.54
2019-01-02T02:14:52.880Z,97.44
2019-01-02T02:16:02.596Z,97.35
2019-01-02T02:17:12.324Z,97.44
2019-01-02T02:18:22.523Z,96.4
2019-01-02T02:19:33.794Z,96.69
2019-01-02T02:20:43.761Z,97.06
2019-01-02T02:21:53.721Z,96.97
2019-01-02T02:23:03.776Z,96.4
2019-01-02T02:24:14.621Z,96.5
2019-01-02T02:25:24.339Z,96.4
2019-01-02T02:26:34.309Z,96.69
2019-01-02T02:27:44.416Z,96.59
2019-01-02T02:28:55.442Z,96.88
2019-01-02T02:30:05.772Z,96.97
2019-01-02T02:31:15.850Z,96.69
2019-01-02T02:32:26.622Z,96.69
2019-01-02T02:33:37.069Z,96.31
2019-01-02T02:34:47.870Z,96.02
2019-01-02T02:35:57.794Z,96.5
2019-01-02T02:37:08.249Z,96.5
2019-01-02T02:38:18.642Z,96.5
2019-01-02T02:39:30.040Z,96.12
2019-01-02T02:40:41.368Z,95.55
2019-01-02T02:41:51.371Z,95.74
2019-01-02T02:43:02.492Z,95.74
2019-01-02T02:44:12.810Z,95.83
2019-01-02T02:45:24.472Z,96.21
2019-01-02T02:46:35.913Z,95.55
2019-01-02T02:47:46.276Z,95.36
2019-01-02T02:48:57.736Z,95.26
2019-01-02T02:50:08.943Z,95.74
2019-01-02T02:51:19.383Z,95.83
2019-01-02T02:52:30.395Z,95.83
2019-01-02T02:53:40.318Z,95.74
2019-01-02T02:54:51.140Z,95.93
2019-01-02T02:56:01.418Z,94.98
2019-01-02T02:57:12.169Z,95.07
2019-01-02T02:58:22.207Z,94.42
2019-01-02T02:59:33.021Z,94.74
2019-01-02T03:00:44.497Z,94.56
2019-01-02T03:01:55.889Z,94.32
2019-01-02T03:03:07.134Z,94.89
2019-01-02T03:04:17.214Z,95.07
2019-01-02T03:05:27.969Z,94.42
2019-01-02T03:06:37.999Z,94.27
2019-01-02T03:07:52.641Z,94.46
2019-01-02T03:09:03.525Z,94.37
2019-01-02T03:10:13.541Z,94.08
2019-01-02T03:11:24.891Z,93.8
2019-01-02T03:12:35.533Z,93.51
2019-01-02T03:13:46.107Z,94.37
2019-01-02T03:14:56.784Z,94.27
2019-01-02T03:16:07.034Z,94.27
2019-01-02T03:17:18.170Z,94.23
2019-01-02T03:18:29.127Z,94.32
2019-01-02T03:19:40.389Z,93.32
2019-01-02T03:20:51.293Z,93.42
2019-01-02T03:22:01.596Z,93.13
2019-01-02T03:23:12.740Z,93.42
2019-01-02T03:24:23.395Z,93.42
2019-01-02T03:25:34.709Z,92.94
2019-01-02T03:26:45.383Z,92.66
2019-01-02T03:27:55.756Z,92.76
2019-01-02T03:29:07.012Z,92.28
2019-01-02T03:30:18.210Z,92.66
2019-01-02T03:31:29.866Z,92.28
2019-01-02T03:32:41.451Z,91.71
2019-01-02T03:33:52.834Z,91.62
2019-01-02T03:35:02.767Z,91.43
2019-01-02T03:36:12.692Z,91.62
2019-01-02T03:37:22.614Z,91.71
2019-01-02T03:38:32.295Z,91.24
2019-01-02T03:39:41.981Z,91.33
2019-01-02T03:40:51.679Z,90.67
2019-01-02T03:42:01.627Z,90.67
2019-01-02T03:43:11.588Z,90.67
2019-01-02T03:44:21.281Z,90.29
2019-01-02T03:45:31.245Z,90.2
2019-01-02T03:46:40.939Z,89.91
2019-01-02T03:47:50.871Z,89.34
2019-01-02T03:49:00.557Z,88.68
2019-01-02T03:50:09.992Z,88.59
2019-01-02T03:51:19.689Z,88.49
2019-01-02T03:52:29.355Z,88.96
2019-01-02T03:53:38.774Z,88.59
2019-01-02T03:54:48.206Z,89.15
2019-01-02T03:55:57.651Z,88.78
2019-01-02T03:57:07.612Z,88.59
2019-01-02T03:58:16.816Z,88.96
2019-01-02T03:59:26.647Z,89.06
2019-01-02T04:00:36.077Z,89.91
2019-01-02T04:01:46.030Z,90.39
2019-01-02T04:02:55.482Z,91.14
2019-01-02T04:04:05.418Z,91.71
2019-01-02T04:05:15.087Z,92.28
2019-01-02T04:06:25.030Z,92.76
2019-01-02T04:07:34.721Z,93.42
2019-01-02T04:08:44.645Z,93.89
2019-01-02T04:09:54.321Z,94.65
2019-01-02T04:11:04.005Z,94.6
2019-01-02T04:12:13.705Z,95.17
2019-01-02T04:13:23.385Z,95.93
2019-01-02T04:14:33.345Z,96.5
2019-01-02T04:15:43.288Z,95.74
2019-01-02T04:16:52.977Z,95.93
2019-01-02T04:18:02.926Z,95.74
2019-01-02T04:19:12.884Z,96.02
2019-01-02T04:20:22.559Z,95.64
2019-01-02T04:21:32.513Z,95.74
2019-01-02T04:22:42.469Z,96.12
2019-01-02T04:23:51.659Z,96.12
2019-01-02T04:25:01.343Z,96.21
2019-01-02T04:26:11.279Z,96.88
2019-01-02T04:27:20.981Z,96.88
2019-01-02T04:28:30.664Z,97.54
2019-01-02T04:29:40.605Z,97.73
2019-01-02T04:30:50.294Z,98.39
2019-01-02T04:32:00.230Z,98.3
2019-01-02T04:33:09.672Z,98.49
2019-01-02T04:34:19.370Z,98.39
2019-01-02T04:35:29.300Z,98.2
2019-01-02T04:36:39.273Z,98.3
2019-01-02T04:37:49.215Z,98.3
2019-01-02T04:38:59.153Z,97.92
2019-01-02T04:40:10.342Z,97.44
2019-01-02T04:41:20.204Z,97.63
2019-01-02T04:42:29.640Z,97.54
2019-01-02T04:43:39.331Z,97.16
2019-01-02T04:44:49.016Z,96.88
2019-01-02T04:45:58.961Z,96.21
2019-01-02T04:47:08.639Z,95.93
2019-01-02T04:48:18.305Z,96.21
2019-01-02T04:49:27.986Z,95.64
2019-01-02T04:50:37.670Z,95.83
2019-01-02T04:51:47.619Z,95.26
2019-01-02T04:52:57.563Z,95.07
2019-01-02T04:54:07.254Z,94.51
2019-01-02T04:55:17.208Z,93.56
2019-01-02T04:56:27.151Z,93.56
2019-01-02T04:57:37.091Z,92.8
2019-01-02T04:58:47.031Z,92.71
2019-01-02T04:59:56.715Z,91.19
2019-01-02T05:01:07.086Z,91.38
2019-01-02T05:02:17.066Z,90.72
2019-01-02T05:03:26.997Z,90.53
2019-01-02T05:04:36.944Z,89.96
2019-01-02T05:05:46.878Z,89.77
2019-01-02T05:06:56.558Z,89.58
2019-01-02T05:08:06.243Z,89.39
2019-01-02T05:09:16.164Z,89.87
2019-01-02T05:10:25.851Z,89.01
2019-01-02T05:11:35.807Z,89.01
2019-01-02T05:12:45.507Z,88.73
2019-01-02T05:13:55.459Z,88.54
2019-01-02T05:15:05.395Z,88.49
2019-01-02T05:16:15.340Z,88.26
2019-01-02T05:17:25.268Z,88.21
2019-01-02T05:18:35.211Z,88.82
2019-01-02T05:19:45.157Z,88.54
2019-01-02T05:20:54.881Z,88.21
2019-01-02T05:22:04.573Z,87.83
2019-01-02T05:23:14.263Z,88.59
2019-01-02T05:24:24.195Z,89.06
2019-01-02T05:25:33.890Z,88.3
2019-01-02T05:26:43.616Z,87.98
2019-01-02T05:27:53.540Z,87.54
2019-01-02T05:29:03.527Z,87.92
2019-01-02T05:30:13.871Z,87.69
2019-01-02T05:31:23.066Z,87.73
2019-01-02T05:32:33.009Z,87.73
2019-01-02T05:33:42.955Z,87.92
2019-01-02T05:34:52.655Z,87.73
2019-01-02T05:36:02.589Z,86.69
2019-01-02T05:37:12.277Z,86.31
2019-01-02T05:38:22.222Z,85.93
2019-01-02T05:39:31.919Z,85.36
2019-01-02T05:40:41.368Z,85.27
2019-01-02T05:41:51.297Z,84.51
2019-01-02T05:43:01.232Z,84.7
2019-01-02T05:44:11.179Z,84.7
2019-01-02T05:45:21.106Z,84.89
2019-01-02T05:46:31.045Z,84.99
2019-01-02T05:47:40.731Z,84.8
2019-01-02T05:48:50.411Z,84.23
2019-01-02T05:50:00.359Z,84.32
2019-01-02T05:51:10.311Z,84.32
2019-01-02T05:52:19.999Z,83.94
2019-01-02T05:53:29.933Z,84.23
2019-01-02T05:54:39.881Z,83.47
2019-01-02T05:55:49.885Z,83.28
2019-01-02T05:56:59.837Z,83.18
2019-01-02T05:58:09.787Z,83.47
2019-01-02T05:59:19.254Z,83.75
2019-01-02T06:00:29.208Z,83.47
2019-01-02T06:01:44.462Z,83.56
2019-01-02T06:02:54.145Z,83.47
2019-01-02T06:04:03.831Z,83.56
2019-01-02T06:05:13.521Z,83.66
2019-01-02T06:06:23.470Z,83.75
2019-01-02T06:07:33.425Z,83.28
2019-01-02T06:08:43.357Z,83.56
2019-01-02T06:09:53.290Z,82.9
2019-01-02T06:11:03.230Z,83.28
2019-01-02T06:12:12.912Z,83.37
2019-01-02T06:13:22.597Z,82.9
2019-01-02T06:14:32.545Z,82.43
2019-01-02T06:15:42.230Z,81.67
2019-01-02T06:16:51.910Z,81.57
2019-01-02T06:18:01.841Z,80.91
2019-01-02T06:19:11.535Z,80.53
2019-01-02T06:20:21.475Z,80.15
2019-01-02T06:21:31.170Z,79.77
2019-01-02T06:22:40.867Z,79.58
2019-01-02T06:23:50.569Z,79.77
2019-01-02T06:25:00.544Z,80.53
2019-01-02T06:26:10.525Z,80.06
2019-01-02T06:27:20.213Z,80.15
2019-01-02T06:28:30.140Z,79.87
2019-01-02T06:29:40.084Z,79.96
2019-01-02T06:30:50.066Z,79.96
2019-01-02T06:31:59.751Z,80.25
2019-01-02T06:33:09.447Z,79.96
2019-01-02T06:34:19.134Z,80.53
2019-01-02T06:35:29.079Z,82.24
2019-01-02T06:36:38.516Z,82.24
2019-01-02T06:37:48.456Z,81.57
2019-01-02T06:38:58.399Z,81.01
2019-01-02T06:40:08.355Z,81.01
2019-01-02T06:41:17.803Z,80.53
2019-01-02T06:42:27.735Z,79.87
2019-01-02T06:43:37.670Z,78.54
2019-01-02T06:44:47.358Z,78.54
2019-01-02T06:45:57.042Z,78.83
2019-01-02T06:47:06.976Z,78.64
2019-01-02T06:48:16.917Z,78.92
2019-01-02T06:49:26.881Z,80.25
2019-01-02T06:50:36.806Z,81.57
2019-01-02T06:51:46.490Z,82.33
2019-01-02T06:52:55.912Z,82.43
2019-01-02T06:54:05.836Z,82.71
2019-01-02T06:55:15.794Z,81.48
2019-01-02T06:56:25.234Z,80.06
2019-01-02T06:57:35.178Z,79.39
2019-01-02T06:58:44.884Z,79.11
2019-01-02T06:59:55.490Z,78.92
2019-01-02T07:01:05.419Z,79.39
2019-01-02T07:02:15.102Z,79.11
2019-01-02T07:03:25.074Z,78.64
2019-01-02T07:04:34.752Z,78.26
2019-01-02T07:05:44.444Z,78.16
2019-01-02T07:06:54.132Z,77.5
2019-01-02T07:08:04.154Z,78.07
2019-01-02T07:09:13.847Z,78.16
2019-01-02T07:10:23.798Z,78.07
2019-01-02T07:11:33.744Z,77.78
2019-01-02T07:12:43.700Z,77.59
2019-01-02T07:13:53.410Z,77.31
2019-01-02T07:15:03.348Z,77.31
2019-01-02T07:16:13.282Z,77.5
2019-01-02T07:17:22.486Z,76.93
2019-01-02T07:18:32.444Z,76.55
2019-01-02T07:19:42.400Z,76.65
2019-01-02T07:20:51.845Z,76.93
2019-01-02T07:22:01.539Z,76.36
2019-01-02T07:23:11.250Z,76.55
2019-01-02T07:24:21.200Z,76.84
2019-01-02T07:25:30.900Z,76.84
2019-01-02T07:26:40.623Z,76.65
2019-01-02T07:27:51.184Z,76.46
2019-01-02T07:29:01.125Z,76.93
2019-01-02T07:30:10.814Z,76.08
2019-01-02T07:31:20.750Z,75.89
2019-01-02T07:32:30.692Z,75.79
2019-01-02T07:33:40.139Z,75.42
2019-01-02T07:34:50.068Z,75.98
2019-01-02T07:36:00.014Z,75.89
2019-01-02T07:37:09.974Z,75.98
2019-01-02T07:38:19.918Z,76.27
2019-01-02T07:39:29.854Z,75.7
2019-01-02T07:40:39.298Z,75.6
2019-01-02T07:41:49.230Z,75.79
2019-01-02T07:42:58.925Z,75.6
2019-01-02T07:44:08.883Z,75.32
2019-01-02T07:45:18.578Z,75.7
2019-01-02T07:46:28.530Z,75.7
2019-01-02T07:47:37.980Z,75.89
2019-01-02T07:48:47.912Z,76.08
2019-01-02T07:49:57.612Z,76.36
2019-01-02T07:51:07.304Z,76.46
2019-01-02T07:52:17.257Z,77.31
2019-01-02T07:53:26.972Z,76.93
2019-01-02T07:54:36.912Z,77.22
2019-01-02T07:55:46.856Z,77.31
2019-01-02T07:56:56.598Z,77.4
2019-01-02T07:58:06.280Z,77.31
2019-01-02T07:59:16.227Z,77.03
2019-01-02T08:00:26.166Z,76.36
2019-01-02T08:01:35.882Z,76.46
2019-01-02T08:02:45.822Z,76.55
2019-01-02T08:03:55.525Z,76.46
2019-01-02T08:05:05.465Z,76.46
2019-01-02T08:06:15.412Z,75.23
2019-01-02T08:07:25.337Z,75.23
2019-01-02T08:08:35.028Z,75.6
2019-01-02T08:09:44.963Z,76.08
2019-01-02T08:10:54.652Z,75.89
2019-01-02T08:12:03.842Z,75.51
2019-01-02T08:13:13.797Z,75.23
2019-01-02T08:14:23.501Z,74.95
2019-01-02T08:15:33.434Z,74.75
2019-01-02T08:16:43.123Z,74.95
2019-01-02T08:17:53.086Z,75.42
2019-01-02T08:19:03.039Z,75.79
2019-01-02T08:20:12.744Z,75.79
2019-01-02T08:21:22.435Z,76.08
2019-01-02T08:22:32.127Z,76.74
2019-01-02T08:23:41.558Z,77.12
2019-01-02T08:24:51.486Z,77.4
2019-01-02T08:26:00.933Z,78.16
2019-01-02T08:27:10.630Z,78.45
2019-01-02T08:28:20.315Z,78.54
2019-01-02T08:29:30.257Z,78.92
2019-01-02T08:30:40.204Z,79.96
2019-01-02T08:31:49.888Z,80.25
2019-01-02T08:32:59.327Z,80.44
2019-01-02T08:34:09.025Z,81.57
2019-01-02T08:35:18.973Z,82.52
2019-01-02T08:36:28.920Z,82.62
2019-01-02T08:37:38.861Z,83.18
2019-01-02T08:38:48.547Z,83.47
2019-01-02T08:39:58.494Z,82.71
2019-01-02T08:41:07.917Z,83
2019-01-02T08:42:18.144Z,83.09
2019-01-02T08:43:27.600Z,83.75
2019-01-02T08:44:37.535Z,83.75
2019-01-02T08:45:47.489Z,83.9
2019-01-02T08:46:57.192Z,83.81
2019-01-02T08:48:07.139Z,84.32
2019-01-02T08:49:17.075Z,83.85
2019-01-02T08:50:27.010Z,84
2019-01-02T08:51:36.963Z,84.28
2019-01-02T08:52:46.677Z,84.56
2019-01-02T08:53:56.636Z,85.32
2019-01-02T08:55:06.324Z,84.19
2019-01-02T08:56:16.267Z,91.19
2019-01-02T08:57:26.197Z,92.8
2019-01-02T08:58:36.151Z,99.99
2019-01-02T08:59:46.095Z,99.24
2019-01-02T09:00:55.779Z,99.24
2019-01-02T09:02:05.719Z,99.99
2019-01-02T09:03:15.667Z,99.99
2019-01-02T09:04:25.357Z,99.99
2019-01-02T09:05:35.313Z,99.99
2019-01-02T09:06:45.015Z,99.99
2019-01-02T09:07:54.974Z,99.99
2019-01-02T09:09:04.686Z,99.99
2019-01-02T09:10:15.328Z,99.99
2019-01-02T09:11:24.761Z,99.99
2019-01-02T09:12:34.702Z,99.99
2019-01-02T09:13:44.647Z,99.99
2019-01-02T09:14:54.392Z,99.99
2019-01-02T09:16:04.338Z,99.99
2019-01-02T09:17:14.029Z,99.99
2019-01-02T09:18:23.979Z,99.99
2019-01-02T09:19:33.671Z,99.99
2019-01-02T09:20:43.624Z,99.99
2019-01-02T09:21:53.571Z,99.99
2019-01-02T09:23:03.281Z,99.99
2019-01-02T09:24:12.983Z,99.99
2019-01-02T09:25:22.670Z,99.99
2019-01-02T09:26:32.609Z,99.99
2019-01-02T09:27:42.554Z,99.99
2019-01-02T09:28:52.495Z,99.99
2019-01-02T09:30:02.191Z,99.99
2019-01-02T09:31:12.134Z,99.99
2019-01-02T09:32:22.075Z,99.99
2019-01-02T09:33:31.999Z,99.99
2019-01-02T09:34:41.948Z,99.99
2019-01-02T09:35:53.313Z,99.99
2019-01-02T09:37:03.315Z,99.99
2019-01-02T09:38:13.257Z,99.99
2019-01-02T09:39:22.949Z,99.99
2019-01-02T09:40:32.940Z,99.99
2019-01-02T09:41:43.161Z,99.99
2019-01-02T09:42:52.953Z,99.99
2019-01-02T09:44:02.660Z,99.99
2019-01-02T09:45:12.619Z,99.99
2019-01-02T09:46:22.636Z,99.99
2019-01-02T09:47:33.048Z,99.99
2019-01-02T09:48:43.037Z,99.99
2019-01-02T09:49:52.994Z,99.99
2019-01-02T09:51:03.056Z,99.99
2019-01-02T09:52:13.004Z,99.99
2019-01-02T09:53:22.444Z,99.99
2019-01-02T09:54:32.380Z,99.99
2019-01-02T09:55:42.070Z,99.99
2019-01-02T09:56:52.012Z,99.99
2019-01-02T09:58:01.707Z,99.99
2019-01-02T09:59:11.659Z,99.99
2019-01-02T10:00:21.596Z,99.99
2019-01-02T10:01:31.543Z,99.99
2019-01-02T10:02:41.241Z,99.99
2019-01-02T10:03:51.193Z,99.99
2019-01-02T10:05:01.147Z,99.99
2019-01-02T10:06:11.087Z,99.99
2019-01-02T10:07:20.791Z,99.99
2019-01-02T10:08:30.740Z,99.99
2019-01-02T10:09:40.426Z,99.99
2019-01-02T10:10:49.866Z,99.99
2019-01-02T10:11:59.799Z,99.99
2019-01-02T10:13:09.745Z,99.99
2019-01-02T10:14:19.197Z,99.99
2019-01-02T10:15:29.158Z,99.99
2019-01-02T10:16:39.094Z,99.99
2019-01-02T10:17:49.042Z,99.99
2019-01-02T10:18:58.729Z,99.99
2019-01-02T10:20:08.667Z,99.99
2019-01-02T10:21:18.604Z,99.99
2019-01-02T10:22:28.564Z,99.99
2019-01-02T10:23:38.020Z,99.99
2019-01-02T10:24:47.957Z,99.99
2019-01-02T10:25:57.895Z,99.99
2019-01-02T10:27:07.592Z,99.99
2019-01-02T10:28:17.545Z,99.99
2019-01-02T10:29:27.234Z,99.99
2019-01-02T10:30:36.935Z,99.99
2019-01-02T10:31:46.871Z,99.99
2019-01-02T10:32:57.057Z,99.99
2019-01-02T10:34:06.775Z,99.99
2019-01-02T10:35:16.482Z,99.99
2019-01-02T10:36:26.188Z,99.99
2019-01-02T10:37:35.894Z,99.99
2019-01-02T10:38:45.596Z,99.99
2019-01-02T10:39:55.032Z,99.99
2019-01-02T10:41:04.970Z,99.99
2019-01-02T10:42:14.929Z,99.99
2019-01-02T10:43:24.866Z,99.99
2019-01-02T10:44:34.563Z,99.99
2019-01-02T10:45:44.518Z,99.99
2019-01-02T10:46:54.456Z,99.99
2019-01-02T10:48:04.154Z,99.99
2019-01-02T10:49:14.113Z,99.99
2019-01-02T10:50:24.060Z,99.99
2019-01-02T10:51:34.003Z,99.99
2019-01-02T10:52:43.950Z,99.71
2019-01-02T10:53:54.484Z,99.71
2019-01-02T10:55:04.439Z,99.99
2019-01-02T10:56:14.405Z,99.9
2019-01-02T10:57:24.345Z,99.05
2019-01-02T10:58:38.983Z,97.54
2019-01-02T10:59:48.922Z,96.5
2019-01-02T11:00:58.870Z,96.31
2019-01-02T11:02:08.845Z,96.59
2019-01-02T11:03:18.790Z,96.31
2019-01-02T11:04:28.483Z,95.64
2019-01-02T11:05:38.430Z,95.74
2019-01-02T11:06:48.119Z,96.59
2019-01-02T11:07:58.089Z,96.97
2019-01-02T11:09:08.040Z,96.4
2019-01-02T11:10:17.718Z,96.69
2019-01-02T11:11:27.416Z,94.84
2019-01-02T11:12:37.293Z,95.88
2019-01-02T11:13:47.253Z,95.79
2019-01-02T11:14:56.935Z,94.84
2019-01-02T11:16:06.635Z,93.51
2019-01-02T11:17:17.335Z,93.23
2019-01-02T11:18:26.862Z,93.42
2019-01-02T11:19:36.808Z,92.57
2019-01-02T11:20:46.766Z,90.95
2019-01-02T11:21:56.701Z,88.3
2019-01-02T11:23:06.646Z,87.64
2019-01-02T11:24:16.342Z,88.02
2019-01-02T11:25:26.279Z,87.07
2019-01-02T11:26:36.225Z,86.41
2019-01-02T11:27:46.170Z,85.31
2019-01-02T11:28:55.868Z,84.94
2019-01-02T11:30:05.823Z,83.7
2019-01-02T11:31:15.773Z,81.27
2019-01-02T11:32:25.469Z,78.43
2019-01-02T11:33:35.422Z,77.48
2019-01-02T11:34:45.393Z,76.39
2019-01-02T11:35:55.352Z,75.53
2019-01-02T11:37:04.779Z,73.22
2019-01-02T11:38:14.724Z,74.26
2019-01-02T11:39:24.681Z,75.11
2019-01-02T11:40:34.612Z,75.45
2019-01-02T11:41:44.607Z,75.84
2019-01-02T11:42:54.300Z,75.84
2019-01-02T11:44:03.997Z,74.69
2019-01-02T11:45:13.703Z,74.51
2019-01-02T11:46:23.658Z,74.32
2019-01-02T11:47:33.652Z,75.17
2019-01-02T11:48:43.596Z,75.74
2019-01-02T11:49:53.538Z,75.13
2019-01-02T11:51:04.190Z,76.08
2019-01-02T11:52:14.223Z,76.17
2019-01-02T11:53:24.176Z,76.74
2019-01-02T11:54:33.616Z,76.93
2019-01-02T11:55:43.556Z,76.27
2019-01-02T11:56:53.233Z,74.66
2019-01-02T11:58:03.186Z,72.38
2019-01-02T11:59:12.888Z,72.57
2019-01-02T12:00:22.843Z,71.44
2019-01-02T12:01:32.782Z,70.78
2019-01-02T12:02:42.240Z,67.83
2019-01-02T12:03:52.187Z,65.66
2019-01-02T12:05:02.125Z,65.12
2019-01-02T12:06:12.070Z,63.23
2019-01-02T12:07:22.014Z,62.85
2019-01-02T12:08:31.965Z,62.85
2019-01-02T12:09:41.658Z,62.08
2019-01-02T12:10:51.597Z,61.14
2019-01-02T12:12:01.553Z,61.05
2019-01-02T12:13:11.516Z,61.24
2019-01-02T12:14:21.477Z,62.08
2019-01-02T12:15:31.424Z,63.01
2019-01-02T12:16:41.362Z,63.67
2019-01-02T12:17:51.303Z,63.39
2019-01-02T12:19:01.263Z,63.42
2019-01-02T12:20:10.951Z,61.71
2019-01-02T12:21:20.646Z,60.67
2019-01-02T12:22:30.115Z,60.38
2019-01-02T12:23:40.098Z,59.63
2019-01-02T12:24:50.071Z,58.96
2019-01-02T12:26:00.034Z,58.77
2019-01-02T12:27:10.008Z,58.8
2019-01-02T12:28:19.708Z,57.47
2019-01-02T12:29:29.654Z,57.95
2019-01-02T12:30:39.358Z,57.76
2019-01-02T12:31:49.322Z,57.95
2019-01-02T12:32:59.294Z,57.09
2019-01-02T12:34:09.699Z,56.52
2019-01-02T12:35:19.392Z,56.74
2019-01-02T12:36:28.841Z,55.7
2019-01-02T12:37:38.541Z,54.27
2019-01-02T12:38:48.498Z,53.33
2019-01-02T12:39:58.440Z,53.52
2019-01-02T12:41:08.399Z,53.8
2019-01-02T12:42:17.861Z,53.23
2019-01-02T12:43:27.806Z,52.69
2019-01-02T12:44:37.484Z,52.78
2019-01-02T12:45:47.450Z,52.5
2019-01-02T12:46:57.451Z,51.83
2019-01-02T12:48:07.395Z,51.62
2019-01-02T12:49:17.086Z,50.48
2019-01-02T12:50:26.797Z,50.48
2019-01-02T12:51:36.502Z,49.91
2019-01-02T12:52:46.204Z,49.82
2019-01-02T12:53:55.658Z,50.57
2019-01-02T12:55:06.128Z,50.01
2019-01-02T12:56:15.826Z,50.38
2019-01-02T12:57:25.776Z,50.83
2019-01-02T12:58:35.708Z,50.64
2019-01-02T12:59:45.486Z,50.76
2019-01-02T13:00:55.460Z,51.43
2019-01-02T13:02:05.415Z,50.57
2019-01-02T13:03:15.385Z,51.43
2019-01-02T13:04:25.339Z,51.52
2019-01-02T13:05:36.257Z,51.72
2019-01-02T13:06:45.714Z,51.78
2019-01-02T13:07:55.681Z,53.2
2019-01-02T13:09:05.642Z,53.39
2019-01-02T13:10:15.103Z,53.77
2019-01-02T13:11:25.050Z,53.77
2019-01-02T13:12:34.988Z,53.3
2019-01-02T13:13:44.924Z,53.39
2019-01-02T13:14:54.880Z,53.11
2019-01-02T13:16:04.841Z,53.39
2019-01-02T13:17:14.536Z,53.02
2019-01-02T13:18:23.983Z,52.73
2019-01-02T13:19:33.958Z,52.73
2019-01-02T13:20:43.641Z,52.06
2019-01-02T13:21:53.609Z,52.73
2019-01-02T13:23:03.058Z,54.13
2019-01-02T13:24:12.497Z,54.32
2019-01-02T13:25:22.458Z,54.69
2019-01-02T13:26:32.420Z,55.74
2019-01-02T13:27:42.364Z,56.02
2019-01-02T13:28:51.807Z,55.83
2019-01-02T13:30:01.771Z,55.55
2019-01-02T13:31:11.708Z,55.64
2019-01-02T13:32:21.398Z,55.36
2019-01-02T13:33:31.105Z,55.33
2019-01-02T13:34:41.046Z,56.18
2019-01-02T13:35:51.013Z,55.8
2019-01-02T13:37:00.464Z,56.66
2019-01-02T13:38:10.168Z,56.94
2019-01-02T13:39:20.155Z,56.94
2019-01-02T13:40:29.839Z,57.23
2019-01-02T13:41:39.546Z,57.23
2019-01-02T13:42:49.499Z,57.89
2019-01-02T13:43:59.449Z,58.07
2019-01-02T13:45:08.912Z,58.26
2019-01-02T13:46:18.607Z,58.17
2019-01-02T13:47:28.540Z,58.84
2019-01-02T13:48:38.478Z,58.65
2019-01-02T13:49:48.465Z,59.59
2019-01-02T13:50:58.416Z,59.31
2019-01-02T13:52:09.253Z,58.55
2019-01-02T13:53:19.203Z,58.93
2019-01-02T13:54:29.150Z,58.84
2019-01-02T13:55:39.097Z,59.69
2019-01-02T13:56:49.034Z,60.73
2019-01-02T13:57:58.989Z,61.11
2019-01-02T13:59:08.182Z,61.21
2019-01-02T14:00:18.146Z,61.4
2019-01-02T14:01:28.120Z,61.96
2019-01-02T14:02:38.071Z,62.62
2019-01-02T14:03:48.030Z,61.77
2019-01-02T14:04:57.982Z,62.05
2019-01-02T14:06:07.472Z,62.15
2019-01-02T14:07:17.432Z,61.68
2019-01-02T14:08:27.382Z,61.4
2019-01-02T14:09:37.324Z,61.11
2019-01-02T14:10:47.039Z,61.58
2019-01-02T14:11:56.476Z,61.58
2019-01-02T14:13:06.172Z,61.87
2019-01-02T14:14:15.866Z,62.05
2019-01-02T14:15:25.803Z,61.4
2019-01-02T14:16:35.266Z,61.4
2019-01-02T14:17:45.224Z,61.77
2019-01-02T14:18:55.169Z,62.62
2019-01-02T14:20:05.114Z,62.53
2019-01-02T14:21:15.070Z,62.78
2019-01-02T14:22:25.011Z,63.35
2019-01-02T14:23:34.701Z,63.54
2019-01-02T14:24:44.403Z,64.49
2019-01-02T14:25:54.353Z,65.44
2019-01-02T14:27:04.294Z,65.81
2019-01-02T14:28:14.237Z,66.76
2019-01-02T14:29:24.186Z,67.43
2019-01-02T14:30:33.888Z,67.43
2019-01-02T14:31:43.591Z,67.33
2019-01-02T14:32:53.294Z,67.99
2019-01-02T14:34:02.991Z,67.8
2019-01-02T14:35:12.929Z,68.18
2019-01-02T14:36:27.731Z,67.61
2019-01-02T14:37:37.682Z,67.8
2019-01-02T14:38:47.373Z,67.52
2019-01-02T14:39:57.323Z,67.9
2019-01-02T14:41:07.019Z,68.46
2019-01-02T14:42:16.962Z,69.79
2019-01-02T14:43:26.928Z,73.39
2019-01-02T14:44:36.902Z,76.89
2019-01-02T14:45:46.844Z,77.51
2019-01-02T14:46:56.789Z,78.75
2019-01-02T14:48:06.739Z,78.65
2019-01-02T14:49:16.501Z,76.67
2019-01-02T14:50:26.475Z,74.68
2019-01-02T14:51:36.433Z,73.26
2019-01-02T14:52:46.146Z,73.26
2019-01-02T14:53:57.172Z,72.6
2019-01-02T14:55:07.145Z,72.6
2019-01-02T14:56:16.854Z,71.65
2019-01-02T14:57:26.821Z,71.55
2019-01-02T14:58:36.788Z,72.03
2019-01-02T14:59:46.734Z,71.27
2019-01-02T15:00:56.434Z,71.17
2019-01-02T15:02:06.145Z,70.79
2019-01-02T15:03:16.084Z,71.46